Time;durP1;ratioP1;P1;durP2;ratioP2;P2;SDS_P1;SDS_P2;PMS_P1;PMS_P2;Temp;Humidity;BMP_temperature;BMP_pressure;BME280_temperature;BME280_humidity;BME280_pressure;Samples;Min_cycle;Max_cycle;Signal;HPM_P1;HPM_P2
2023/01/21 00:01:17;;;;;;;90.57;44.03;;;1.70;99.90;;;;;;5003330;28;20040;-84
2023/01/21 00:03:44;;;;;;;89.78;43.72;;;1.70;99.90;;;;;;5003480;28;20542;-84
2023/01/21 00:06:11;;;;;;;84.50;42.20;;;1.70;99.90;;;;;;5003266;28;20076;-84
2023/01/21 00:08:36;;;;;;;72.00;35.88;;;1.70;99.90;;;;;;5002452;28;20034;-81
2023/01/21 00:11:06;;;;;;;78.93;36.78;;;1.70;99.90;;;;;;5002180;28;20042;-82
2023/01/21 00:13:34;;;;;;;69.43;34.43;;;1.60;99.90;;;;;;4999890;28;20049;-84
2023/01/21 00:16:00;;;;;;;76.25;32.88;;;1.70;99.90;;;;;;4999746;28;20323;-85
2023/01/21 00:18:26;;;;;;;65.07;32.22;;;1.60;99.90;;;;;;5016964;28;20037;-84
2023/01/21 00:20:51;;;;;;;67.80;32.63;;;1.60;99.90;;;;;;4982586;28;20030;-85
2023/01/21 00:23:17;;;;;;;58.72;28.77;;;1.60;99.90;;;;;;4999314;28;20037;-85
2023/01/21 00:25:43;;;;;;;63.42;29.35;;;1.60;99.90;;;;;;5015420;28;20037;-82
2023/01/21 00:28:08;;;;;;;61.92;30.65;;;1.60;99.90;;;;;;4983297;28;20042;-83
2023/01/21 00:30:35;;;;;;;66.00;31.25;;;1.60;99.90;;;;;;4999418;28;20033;-83
2023/01/21 00:33:04;;;;;;;60.13;28.80;;;1.60;99.90;;;;;;4999115;28;20048;-83
2023/01/21 00:35:30;;;;;;;64.90;29.77;;;1.50;99.90;;;;;;4999606;28;20042;-83
2023/01/21 00:37:55;;;;;;;63.28;30.60;;;1.60;99.90;;;;;;5016660;28;20372;-83
2023/01/21 00:40:21;;;;;;;55.95;28.02;;;1.60;99.90;;;;;;4982906;28;20044;-83
2023/01/21 00:42:47;;;;;;;55.45;27.48;;;1.50;99.90;;;;;;4983225;28;20038;-82
2023/01/21 00:45:13;;;;;;;61.95;28.55;;;1.60;99.90;;;;;;4999157;28;20121;-82
2023/01/21 00:47:39;;;;;;;54.92;26.92;;;1.50;99.90;;;;;;4998970;28;20050;-82
2023/01/21 00:50:05;;;;;;;59.75;26.63;;;1.60;99.90;;;;;;4998263;28;20038;-84
2023/01/21 00:52:31;;;;;;;53.53;26.33;;;1.50;99.90;;;;;;4998831;28;20030;-85
2023/01/21 00:54:57;;;;;;;60.75;29.45;;;1.50;99.90;;;;;;4998844;28;20034;-85
2023/01/21 00:57:22;;;;;;;53.13;25.80;;;1.50;99.90;;;;;;5014959;28;20034;-85
2023/01/21 00:59:48;;;;;;;55.17;24.83;;;1.50;99.90;;;;;;4982752;28;20510;-85
2023/01/21 01:02:13;;;;;;;52.92;24.85;;;1.50;99.90;;;;;;4999059;28;20042;-84
2023/01/21 01:04:39;;;;;;;53.97;26.13;;;1.50;99.90;;;;;;4998881;28;20034;-85
2023/01/21 01:07:05;;;;;;;53.80;25.55;;;1.50;99.90;;;;;;4998759;28;20038;-84
2023/01/21 01:09:31;;;;;;;49.85;25.10;;;1.50;99.90;;;;;;4982830;28;20042;-85
2023/01/21 01:11:57;;;;;;;49.15;23.92;;;1.50;99.90;;;;;;4982545;28;20049;-85
2023/01/21 01:14:23;;;;;;;48.97;24.83;;;1.50;99.90;;;;;;4998711;28;20526;-84
2023/01/21 01:16:48;;;;;;;47.47;24.35;;;1.50;99.90;;;;;;4982922;28;20034;-84
2023/01/21 01:19:14;;;;;;;52.92;26.40;;;1.50;99.90;;;;;;4982407;28;20041;-85
2023/01/21 01:21:40;;;;;;;55.05;24.85;;;1.50;99.90;;;;;;4999276;28;20223;-82
2023/01/21 01:24:06;;;;;;;52.85;24.35;;;1.50;99.90;;;;;;5014850;28;20038;-82
2023/01/21 01:26:34;;;;;;;50.03;23.63;;;1.50;99.90;;;;;;4998216;28;20026;-82
2023/01/21 01:29:00;;;;;;;49.85;24.08;;;1.50;99.90;;;;;;4982491;28;20100;-82
2023/01/21 01:31:26;;;;;;;55.47;25.25;;;1.40;99.90;;;;;;4981595;28;20045;-83
2023/01/21 01:33:51;;;;;;;48.45;23.35;;;1.50;99.90;;;;;;4981851;28;20384;-85
2023/01/21 01:36:19;;;;;;;49.67;23.85;;;1.40;99.90;;;;;;4982183;28;20065;-85
2023/01/21 01:38:45;;;;;;;50.95;24.95;;;1.40;99.90;;;;;;4998051;28;20033;-86
2023/01/21 01:41:17;;;;;;;48.95;24.13;;;1.40;99.90;;;;;;4998789;28;20042;-82
2023/01/21 01:44:04;;;;;;;47.92;23.77;;;1.40;99.90;;;;;;5015635;28;20014;-82
2023/01/21 01:46:33;;;;;;;50.33;23.95;;;1.40;99.90;;;;;;5015330;28;20518;-82
2023/01/21 01:49:15;;;;;;;49.42;24.13;;;1.40;99.90;;;;;;5015722;28;20057;-85
2023/01/21 01:51:53;;;;;;;46.30;23.75;;;1.40;99.90;;;;;;5015600;28;20479;-85
2023/01/21 01:54:33;;;;;;;52.38;23.77;;;1.40;99.90;;;;;;5015376;28;20069;-85
2023/01/21 01:57:01;;;;;;;51.38;23.45;;;1.40;99.90;;;;;;4998116;28;20125;-85
2023/01/21 01:59:29;;;;;;;52.58;24.48;;;1.40;99.90;;;;;;4981717;28;20046;-85
2023/01/21 02:01:57;;;;;;;48.35;23.52;;;1.40;99.90;;;;;;4997455;28;20041;-85
2023/01/21 02:04:27;;;;;;;48.10;23.77;;;1.40;99.90;;;;;;4997476;28;20381;-83
2023/01/21 02:06:54;;;;;;;49.83;23.83;;;1.40;99.90;;;;;;4998027;28;20041;-82
2023/01/21 02:09:20;;;;;;;48.30;24.05;;;1.40;99.90;;;;;;4981212;28;20049;-82
2023/01/21 02:11:46;;;;;;;47.75;23.63;;;1.30;99.90;;;;;;5013411;28;20491;-82
2023/01/21 02:14:12;;;;;;;50.25;23.67;;;1.30;99.90;;;;;;4981138;28;20038;-82
2023/01/21 02:16:56;;;;;;;49.50;23.55;;;1.30;99.90;;;;;;5014588;28;20109;-82
2023/01/21 02:19:41;;;;;;;47.92;22.63;;;1.30;99.90;;;;;;5014448;28;20045;-82
2023/01/21 02:22:19;;;;;;;46.70;23.10;;;1.30;99.90;;;;;;4997310;28;20456;-85
2023/01/21 02:25:15;;;;;;;46.58;22.02;;;1.30;99.90;;;;;;4997411;28;20034;-85
2023/01/21 02:27:50;;;;;;;46.90;22.00;;;1.30;99.90;;;;;;4997484;28;20042;-85
2023/01/21 02:30:34;;;;;;;47.80;22.75;;;1.30;99.90;;;;;;5014946;28;20025;-85
2023/01/21 02:33:16;;;;;;;46.85;21.80;;;1.30;99.90;;;;;;5014216;28;20038;-83
2023/01/21 02:35:58;;;;;;;48.55;22.67;;;1.30;99.90;;;;;;5014018;28;20407;-83
2023/01/21 02:38:56;;;;;;;55.97;24.00;;;1.30;99.90;;;;;;5014595;28;20045;-83
2023/01/21 02:42:01;;;;;;;48.50;22.80;;;1.30;99.90;;;;;;5014603;28;20128;-83
2023/01/21 02:44:36;;;;;;;49.60;22.38;;;1.20;99.90;;;;;;5014577;28;20080;-82
2023/01/21 02:47:20;;;;;;;57.47;23.50;;;1.30;99.90;;;;;;4996572;28;20073;-83
2023/01/21 02:49:51;;;;;;;51.35;22.33;;;1.30;99.90;;;;;;4996479;28;20041;-83
2023/01/21 02:52:18;;;;;;;47.08;21.85;;;1.30;99.90;;;;;;5014676;28;20375;-83
2023/01/21 02:54:56;;;;;;;53.28;23.55;;;1.20;99.90;;;;;;5014619;28;20387;-82
2023/01/21 02:57:56;;;;;;;52.40;22.50;;;1.30;99.90;;;;;;5013366;28;20038;-82
2023/01/21 03:01:10;;;;;;;56.65;23.52;;;1.20;99.90;;;;;;4992824;28;20042;-83
2023/01/21 03:03:47;;;;;;;47.65;22.88;;;1.20;99.90;;;;;;4938748;28;20030;-83
2023/01/21 03:06:40;;;;;;;54.38;21.30;;;1.20;99.90;;;;;;5014364;28;20072;-84
2023/01/21 03:09:13;;;;;;;52.88;23.80;;;1.20;99.90;;;;;;4997242;28;20030;-85
2023/01/21 03:11:44;;;;;;;46.75;21.38;;;1.20;99.90;;;;;;4997398;28;20120;-85
2023/01/21 03:17:25;;;;;;;48.85;22.63;;;1.20;99.90;;;;;;5014919;28;20065;-82
2023/01/21 03:20:10;;;;;;;48.95;22.35;;;1.20;99.90;;;;;;4996511;28;20040;-82
2023/01/21 03:22:37;;;;;;;51.45;22.95;;;1.20;99.90;;;;;;4996585;28;20030;-82
2023/01/21 03:25:06;;;;;;;54.30;24.40;;;1.20;99.90;;;;;;4980663;28;20034;-81
2023/01/21 03:27:33;;;;;;;53.97;23.40;;;1.20;99.90;;;;;;4996307;28;20033;-83
2023/01/21 03:30:04;;;;;;;48.17;21.67;;;1.20;99.90;;;;;;4996208;28;20038;-83
2023/01/21 03:32:33;;;;;;;51.90;22.50;;;1.20;99.90;;;;;;5014236;28;20034;-83
2023/01/21 03:35:01;;;;;;;47.55;22.02;;;1.10;99.90;;;;;;4996164;28;20036;-83
2023/01/21 03:37:36;;;;;;;45.75;22.58;;;1.20;99.90;;;;;;4995980;28;20030;-83
2023/01/21 03:40:19;;;;;;;55.20;23.52;;;1.20;99.90;;;;;;4995781;28;20113;-83
2023/01/21 03:42:49;;;;;;;51.90;23.33;;;1.20;99.90;;;;;;5014000;28;20044;-85
2023/01/21 03:45:16;;;;;;;48.97;21.35;;;1.20;99.90;;;;;;4996436;28;20034;-83
2023/01/21 03:47:45;;;;;;;53.78;23.65;;;1.20;99.90;;;;;;5015222;28;20096;-83
2023/01/21 03:50:22;;;;;;;51.22;22.60;;;1.20;99.90;;;;;;4999635;28;20100;-83
2023/01/21 03:52:48;;;;;;;47.60;22.13;;;1.20;99.90;;;;;;4999930;28;20089;-83
2023/01/21 03:55:14;;;;;;;51.63;23.33;;;1.20;99.90;;;;;;4999881;28;20030;-83
2023/01/21 03:57:40;;;;;;;50.83;23.33;;;1.20;99.90;;;;;;5017201;28;20041;-83
2023/01/21 04:00:07;;;;;;;53.78;22.35;;;1.20;99.90;;;;;;4983186;28;20124;-83
2023/01/21 04:02:32;;;;;;;54.08;24.10;;;1.20;99.90;;;;;;4999996;28;20042;-81
2023/01/21 04:04:58;;;;;;;52.92;23.55;;;1.20;99.90;;;;;;5000092;28;20073;-82
2023/01/21 04:07:24;;;;;;;57.60;23.00;;;1.20;99.90;;;;;;4999758;28;20037;-82
2023/01/21 04:09:50;;;;;;;54.67;24.10;;;1.20;99.90;;;;;;4999374;28;20042;-82
2023/01/21 04:12:16;;;;;;;49.85;22.25;;;1.10;99.90;;;;;;5000249;28;20065;-82
2023/01/21 04:14:41;;;;;;;55.58;24.35;;;1.20;99.90;;;;;;4999070;28;20062;-85
2023/01/21 04:17:07;;;;;;;51.30;23.10;;;1.20;99.90;;;;;;4983834;28;20387;-85
2023/01/21 04:19:33;;;;;;;48.70;22.70;;;1.20;99.90;;;;;;4999686;28;20503;-85
2023/01/21 04:21:59;;;;;;;52.55;23.80;;;1.20;99.90;;;;;;4982986;28;20072;-85
2023/01/21 04:24:25;;;;;;;50.40;22.80;;;1.20;99.90;;;;;;4999196;28;20030;-85
2023/01/21 04:26:51;;;;;;;49.58;23.65;;;1.20;99.90;;;;;;4999384;28;20053;-85
2023/01/21 04:29:17;;;;;;;51.33;23.00;;;1.20;99.90;;;;;;4983467;28;20041;-85
2023/01/21 04:31:43;;;;;;;58.75;25.65;;;1.20;99.90;;;;;;4999229;28;20515;-85
2023/01/21 04:34:08;;;;;;;50.33;23.67;;;1.10;99.90;;;;;;5016944;28;20070;-82
2023/01/21 04:36:34;;;;;;;52.15;24.23;;;1.20;99.90;;;;;;4999613;28;20498;-82
2023/01/21 04:39:00;;;;;;;53.65;23.20;;;1.20;99.90;;;;;;4999047;28;20133;-85
2023/01/21 04:41:25;;;;;;;52.40;24.05;;;1.20;99.90;;;;;;4982875;28;20529;-85
2023/01/21 04:43:51;;;;;;;52.95;23.83;;;1.20;99.90;;;;;;4999211;28;20034;-85
2023/01/21 04:46:16;;;;;;;50.83;24.23;;;1.10;99.90;;;;;;4982706;28;20034;-85
2023/01/21 04:48:42;;;;;;;54.10;23.05;;;1.10;99.90;;;;;;4982495;28;20104;-85
2023/01/21 04:51:08;;;;;;;54.58;24.65;;;1.10;99.90;;;;;;4999673;28;20038;-85
2023/01/21 04:53:33;;;;;;;52.42;23.95;;;1.10;99.90;;;;;;4999080;28;20053;-85
2023/01/21 04:55:59;;;;;;;53.60;24.77;;;1.20;99.90;;;;;;4999125;28;20053;-85
2023/01/21 04:58:26;;;;;;;52.08;23.33;;;1.10;99.90;;;;;;4998097;28;20387;-84
2023/01/21 05:00:53;;;;;;;52.70;23.92;;;1.10;99.90;;;;;;4999289;28;20468;-85
2023/01/21 05:03:19;;;;;;;52.85;23.45;;;1.10;99.90;;;;;;4998504;28;20479;-85
2023/01/21 05:05:44;;;;;;;57.60;25.05;;;1.20;99.90;;;;;;4982796;28;20038;-85
2023/01/21 05:08:10;;;;;;;51.58;23.65;;;1.10;99.90;;;;;;4999677;28;20125;-86
2023/01/21 05:10:36;;;;;;;50.78;23.75;;;1.10;99.90;;;;;;4998830;28;20120;-86
2023/01/21 05:13:01;;;;;;;53.03;23.60;;;1.10;99.90;;;;;;4982775;28;20093;-86
2023/01/21 05:15:27;;;;;;;52.78;24.08;;;1.10;99.90;;;;;;4998735;28;20045;-86
2023/01/21 05:17:52;;;;;;;59.85;24.55;;;1.10;99.90;;;;;;4982339;28;20044;-86
2023/01/21 05:20:18;;;;;;;58.45;25.52;;;1.10;99.90;;;;;;4981751;28;20030;-86
2023/01/21 05:22:47;;;;;;;58.35;25.10;;;1.10;99.90;;;;;;4982431;28;20038;-86
2023/01/21 05:25:14;;;;;;;55.60;23.92;;;1.10;99.90;;;;;;4998687;28;20030;-83
2023/01/21 05:27:40;;;;;;;58.28;25.88;;;1.10;99.90;;;;;;4998346;28;20081;-82
2023/01/21 05:30:07;;;;;;;50.38;24.63;;;1.10;99.90;;;;;;5016035;28;20030;-86
2023/01/21 05:32:35;;;;;;;56.50;24.48;;;1.10;99.90;;;;;;4981992;28;20073;-85
2023/01/21 05:35:03;;;;;;;54.30;25.10;;;1.00;99.90;;;;;;4981806;28;20368;-85
2023/01/21 05:37:29;;;;;;;56.63;25.55;;;1.10;99.90;;;;;;4998340;28;20061;-86
2023/01/21 05:39:55;;;;;;;57.55;26.55;;;1.10;99.90;;;;;;4997982;28;20517;-85
2023/01/21 05:42:20;;;;;;;58.67;26.92;;;1.10;99.90;;;;;;4998127;28;20050;-83
2023/01/21 05:44:46;;;;;;;64.50;26.63;;;1.10;99.90;;;;;;4998633;28;20490;-86
2023/01/21 05:47:12;;;;;;;62.80;26.50;;;1.10;99.90;;;;;;5014664;28;20098;-83
2023/01/21 05:49:37;;;;;;;60.38;25.85;;;1.10;99.90;;;;;;4998106;28;20045;-83
2023/01/21 05:52:03;;;;;;;57.35;24.75;;;1.10;99.90;;;;;;4997704;28;20092;-83
2023/01/21 05:54:29;;;;;;;59.67;25.90;;;1.10;99.90;;;;;;4997809;28;20442;-83
2023/01/21 05:56:54;;;;;;;59.90;25.95;;;1.10;99.90;;;;;;4997727;28;20041;-83
2023/01/21 05:59:20;;;;;;;61.55;25.27;;;1.00;99.90;;;;;;4981186;28;20037;-82
2023/01/21 06:01:46;;;;;;;60.40;26.30;;;1.10;99.90;;;;;;4981281;28;20040;-82
2023/01/21 06:04:11;;;;;;;61.90;25.52;;;1.10;99.90;;;;;;4981448;28;20497;-82
2023/01/21 06:06:37;;;;;;;63.42;27.52;;;1.10;99.90;;;;;;4997552;28;20038;-82
2023/01/21 06:09:03;;;;;;;69.82;26.92;;;1.10;99.90;;;;;;4998069;28;20117;-86
2023/01/21 06:11:47;;;;;;;69.78;28.00;;;1.10;99.90;;;;;;4981021;28;20068;-86
2023/01/21 06:14:13;;;;;;;65.55;27.30;;;1.10;99.90;;;;;;4977989;28;20034;-86
2023/01/21 06:16:39;;;;;;;68.60;27.52;;;1.10;99.90;;;;;;4994108;28;20041;-82
2023/01/21 06:19:04;;;;;;;65.95;27.42;;;1.10;99.90;;;;;;4995165;28;20042;-82
2023/01/21 06:21:30;;;;;;;78.65;30.50;;;1.10;99.90;;;;;;4994215;28;20028;-82
2023/01/21 06:23:56;;;;;;;72.60;28.85;;;1.10;99.90;;;;;;4995544;28;20380;-82
2023/01/21 06:26:22;;;;;;;81.32;31.48;;;1.10;99.90;;;;;;4972352;28;20045;-82
2023/01/21 06:28:48;;;;;;;70.97;29.73;;;1.10;99.90;;;;;;4994012;28;20050;-82
2023/01/21 06:31:13;;;;;;;77.10;28.17;;;1.10;99.90;;;;;;4978226;28;20039;-85
2023/01/21 06:33:39;;;;;;;82.18;30.40;;;1.20;99.90;;;;;;4995176;28;20049;-86
2023/01/21 06:36:05;;;;;;;76.25;29.17;;;1.10;99.90;;;;;;4977964;28;20034;-86
2023/01/21 06:38:34;;;;;;;71.70;27.75;;;1.20;99.90;;;;;;4977913;28;20336;-85
2023/01/21 06:41:01;;;;;;;75.78;27.98;;;1.20;99.90;;;;;;4978229;28;20038;-83
2023/01/21 06:43:27;;;;;;;84.60;30.92;;;1.20;99.90;;;;;;4977487;28;20125;-86
2023/01/21 06:45:53;;;;;;;85.68;31.67;;;1.20;99.90;;;;;;4961112;28;20487;-86
2023/01/21 06:48:19;;;;;;;83.28;29.60;;;1.20;99.90;;;;;;4993914;28;20141;-83
2023/01/21 06:50:45;;;;;;;85.57;30.00;;;1.20;99.90;;;;;;4977213;28;20109;-83
2023/01/21 06:53:11;;;;;;;83.63;29.13;;;1.20;99.90;;;;;;4946066;28;20088;-83
2023/01/21 06:55:37;;;;;;;75.63;26.83;;;1.20;99.90;;;;;;4994881;28;20113;-85
2023/01/21 06:58:03;;;;;;;88.93;29.27;;;1.20;99.90;;;;;;4993478;28;20137;-85
2023/01/21 07:00:28;;;;;;;88.80;30.08;;;1.20;99.90;;;;;;4977923;28;20022;-85
2023/01/21 07:02:58;;;;;;;88.70;30.63;;;1.20;99.90;;;;;;4993720;28;20130;-85
2023/01/21 07:05:24;;;;;;;80.97;29.33;;;1.20;99.90;;;;;;4977261;28;20061;-86
2023/01/21 07:07:54;;;;;;;83.68;30.33;;;1.20;99.90;;;;;;4977278;28;20038;-85
2023/01/21 07:10:20;;;;;;;86.15;28.98;;;1.20;99.90;;;;;;4994427;28;20062;-85
2023/01/21 07:12:46;;;;;;;89.15;29.83;;;1.20;99.90;;;;;;4977146;28;20514;-83
2023/01/21 07:15:11;;;;;;;89.75;30.20;;;1.20;99.90;;;;;;4993408;28;20088;-83
2023/01/21 07:17:37;;;;;;;84.70;28.40;;;1.30;99.90;;;;;;4977009;28;20065;-83
2023/01/21 07:20:03;;;;;;;99.13;29.85;;;1.20;99.90;;;;;;4976951;28;20038;-83
2023/01/21 07:22:29;;;;;;;84.40;26.75;;;1.20;99.90;;;;;;4997442;28;20491;-83
2023/01/21 07:24:55;;;;;;;80.80;28.10;;;1.30;99.90;;;;;;4964610;28;20114;-83
2023/01/21 07:27:20;;;;;;;94.13;28.50;;;1.30;99.90;;;;;;4980602;28;20365;-83
2023/01/21 07:29:46;;;;;;;77.93;28.67;;;1.30;99.90;;;;;;4981080;28;20047;-85
2023/01/21 07:32:12;;;;;;;85.60;28.98;;;1.30;99.90;;;;;;4981509;28;20034;-82
2023/01/21 07:34:37;;;;;;;89.47;29.63;;;1.20;99.90;;;;;;4980802;28;20038;-82
2023/01/21 07:37:03;;;;;;;89.40;29.60;;;1.30;99.90;;;;;;4980424;28;20038;-82
2023/01/21 07:39:28;;;;;;;89.20;29.38;;;1.30;99.90;;;;;;4981273;28;20053;-86
2023/01/21 07:41:54;;;;;;;87.15;31.17;;;1.30;99.90;;;;;;4948371;28;20038;-85
2023/01/21 07:44:20;;;;;;;94.10;31.25;;;1.30;99.90;;;;;;4964149;28;20076;-86
2023/01/21 07:46:45;;;;;;;83.95;29.33;;;1.30;99.90;;;;;;4980066;28;20062;-85
2023/01/21 07:49:16;;;;;;;85.90;29.65;;;1.30;99.90;;;;;;4980277;28;20066;-85
2023/01/21 07:51:42;;;;;;;85.03;30.43;;;1.30;99.90;;;;;;4965948;28;20042;-86
2023/01/21 07:54:09;;;;;;;79.22;27.95;;;1.30;99.90;;;;;;4965019;28;20077;-86
2023/01/21 07:56:35;;;;;;;81.05;29.27;;;1.30;99.90;;;;;;4948953;28;20070;-85
2023/01/21 07:59:01;;;;;;;83.88;29.63;;;1.30;99.90;;;;;;4964361;28;20117;-85
2023/01/21 08:01:29;;;;;;;86.10;28.88;;;1.30;99.90;;;;;;4979758;28;20512;-85
2023/01/21 08:03:58;;;;;;;77.93;29.15;;;1.30;99.90;;;;;;4949546;28;20034;-86
2023/01/21 08:06:24;;;;;;;83.95;29.95;;;1.30;99.90;;;;;;4980380;28;20042;-86
2023/01/21 08:08:50;;;;;;;77.57;28.63;;;1.30;99.90;;;;;;4997698;28;20042;-86
2023/01/21 08:11:16;;;;;;;83.60;31.42;;;1.30;99.90;;;;;;4964276;28;20045;-86
2023/01/21 08:13:41;;;;;;;77.25;29.77;;;1.30;99.90;;;;;;4980533;28;20030;-85
2023/01/21 08:16:10;;;;;;;82.32;31.50;;;1.40;99.90;;;;;;4964592;28;20034;-85
2023/01/21 08:18:36;;;;;;;77.90;30.80;;;1.40;99.90;;;;;;4981240;28;20100;-85
2023/01/21 08:21:02;;;;;;;76.70;29.35;;;1.40;99.90;;;;;;4997388;28;20479;-85
2023/01/21 08:23:28;;;;;;;78.53;31.27;;;1.40;99.90;;;;;;4996513;28;20062;-85
2023/01/21 08:25:53;;;;;;;74.32;30.38;;;1.40;99.90;;;;;;4979614;28;20069;-82
2023/01/21 08:28:20;;;;;;;76.50;30.33;;;1.50;99.90;;;;;;4963563;28;20034;-83
2023/01/21 08:30:46;;;;;;;74.97;29.42;;;1.40;99.90;;;;;;4979680;28;20395;-83
2023/01/21 08:33:11;;;;;;;78.70;28.52;;;1.50;99.90;;;;;;4995188;28;20046;-81
2023/01/21 08:35:37;;;;;;;77.78;30.58;;;1.50;99.90;;;;;;4995480;28;20514;-82
2023/01/21 08:38:03;;;;;;;79.85;30.27;;;1.50;99.90;;;;;;4979693;28;20039;-82
2023/01/21 08:40:29;;;;;;;83.65;30.13;;;1.50;99.90;;;;;;4995292;28;20094;-82
2023/01/21 08:43:02;;;;;;;81.43;29.90;;;1.50;99.90;;;;;;4979711;28;20043;-82
2023/01/21 08:45:28;;;;;;;77.88;28.95;;;1.60;99.90;;;;;;4964090;28;20030;-83
2023/01/21 08:47:54;;;;;;;71.05;26.98;;;1.60;99.90;;;;;;4963461;28;20050;-83
2023/01/21 08:50:20;;;;;;;79.88;29.27;;;1.60;99.90;;;;;;4963313;28;20069;-83
2023/01/21 08:52:51;;;;;;;70.28;27.17;;;1.60;99.90;;;;;;4963983;28;20038;-82
2023/01/21 08:55:16;;;;;;;76.55;29.65;;;1.60;99.90;;;;;;4947022;28;20181;-82
2023/01/21 08:57:42;;;;;;;73.60;28.70;;;1.60;99.90;;;;;;4962782;28;20484;-82
2023/01/21 09:00:08;;;;;;;76.78;29.67;;;1.70;99.90;;;;;;4979158;28;20038;-82
2023/01/21 09:02:34;;;;;;;74.25;29.63;;;1.70;99.90;;;;;;4947587;28;20053;-86
2023/01/21 09:04:59;;;;;;;73.57;28.50;;;1.70;99.90;;;;;;4996335;28;20376;-86
2023/01/21 09:07:25;;;;;;;72.97;28.05;;;1.70;99.90;;;;;;4980391;28;20058;-86
2023/01/21 09:09:51;;;;;;;71.15;28.05;;;1.70;99.90;;;;;;4963360;28;20038;-86
2023/01/21 09:12:16;;;;;;;78.00;28.48;;;1.70;99.90;;;;;;4980136;28;20045;-86
2023/01/21 09:14:42;;;;;;;71.32;27.83;;;1.80;99.90;;;;;;4963483;28;20045;-86
2023/01/21 09:17:09;;;;;;;75.22;27.40;;;1.80;99.90;;;;;;4979288;28;20042;-85
2023/01/21 09:19:36;;;;;;;70.18;28.33;;;1.80;99.90;;;;;;4996248;28;20039;-84
2023/01/21 09:22:01;;;;;;;70.03;27.38;;;1.80;99.90;;;;;;4978803;28;20162;-83
2023/01/21 09:24:27;;;;;;;67.32;27.00;;;1.80;99.90;;;;;;4979475;28;20756;-86
2023/01/21 09:26:54;;;;;;;72.43;28.05;;;1.90;99.90;;;;;;4962756;28;20129;-83
2023/01/21 09:29:19;;;;;;;71.88;27.65;;;1.90;99.90;;;;;;4963008;28;20507;-82
2023/01/21 09:31:45;;;;;;;72.15;27.95;;;1.90;99.90;;;;;;4946570;28;20041;-87
2023/01/21 09:34:11;;;;;;;74.88;28.35;;;1.90;99.90;;;;;;4963406;28;20061;-87
2023/01/21 09:36:37;;;;;;;66.65;26.35;;;1.90;99.90;;;;;;4962945;28;20031;-85
2023/01/21 09:39:04;;;;;;;75.43;28.73;;;1.90;99.90;;;;;;4996178;28;20109;-87
2023/01/21 09:41:43;;;;;;;66.55;28.20;;;2.00;99.90;;;;;;4978441;28;20081;-87
2023/01/21 09:44:23;;;;;;;70.93;29.15;;;2.00;99.90;;;;;;4978214;28;20037;-87
2023/01/21 09:47:21;;;;;;;73.82;28.42;;;2.00;99.90;;;;;;4994891;28;20085;-85
2023/01/21 09:49:48;;;;;;;70.38;27.65;;;2.00;99.90;;;;;;4996009;28;20041;-85
2023/01/21 09:52:20;;;;;;;65.82;27.95;;;2.00;99.90;;;;;;4996468;28;20441;-89
2023/01/21 09:54:45;;;;;;;68.18;28.42;;;2.10;99.90;;;;;;4982104;28;20035;-89
2023/01/21 09:57:33;;;;;;;69.55;27.92;;;2.10;99.90;;;;;;4981045;28;20049;-89
2023/01/21 10:00:25;;;;;;;69.60;28.05;;;2.10;99.90;;;;;;4997557;28;20060;-87
2023/01/21 10:02:57;;;;;;;69.47;27.85;;;2.10;99.90;;;;;;5016315;28;20057;-89
2023/01/21 10:05:23;;;;;;;70.43;28.63;;;2.10;99.90;;;;;;4998854;28;20034;-89
2023/01/21 10:08:07;;;;;;;69.95;28.13;;;2.10;99.90;;;;;;4997688;28;20045;-86
2023/01/21 10:10:53;;;;;;;65.97;28.17;;;2.20;99.90;;;;;;4997844;28;20070;-86
2023/01/21 10:14:12;;;;;;;69.32;28.00;;;2.20;99.90;;;;;;4947909;28;20034;-85
2023/01/21 10:17:07;;;;;;;67.40;27.02;;;2.20;99.90;;;;;;4907844;29;20518;-84
2023/01/21 10:19:45;;;;;;;68.95;26.55;;;2.20;99.90;;;;;;4994633;28;20117;-85
2023/01/21 10:22:16;;;;;;;60.65;26.00;;;2.20;99.90;;;;;;4994014;28;20796;-87
2023/01/21 10:24:56;;;;;;;63.88;26.48;;;2.30;99.90;;;;;;4994117;28;20387;-85
2023/01/21 10:27:26;;;;;;;71.25;27.17;;;2.30;99.90;;;;;;5009534;28;20068;-86
2023/01/21 10:30:04;;;;;;;67.03;26.77;;;2.30;99.90;;;;;;4981193;28;20607;-86
2023/01/21 10:32:31;;;;;;;55.90;25.70;;;2.30;99.90;;;;;;5015145;28;20049;-86
2023/01/21 10:34:57;;;;;;;63.22;26.35;;;2.30;99.90;;;;;;4981397;28;20038;-85
2023/01/21 10:37:28;;;;;;;65.55;27.77;;;2.30;99.90;;;;;;4981040;28;20376;-85
2023/01/21 10:40:16;;;;;;;68.90;27.42;;;2.30;99.90;;;;;;5014663;28;20030;-85
2023/01/21 10:43:19;;;;;;;68.05;28.65;;;2.40;99.90;;;;;;4997965;28;20112;-87
2023/01/21 10:46:04;;;;;;;61.97;25.35;;;2.40;99.90;;;;;;4936196;29;20209;-87
2023/01/21 10:48:56;;;;;;;60.42;24.52;;;2.40;99.90;;;;;;4992787;28;20062;-87
2023/01/21 10:51:33;;;;;;;62.35;26.38;;;2.40;99.90;;;;;;4997939;28;20042;-88
2023/01/21 10:54:14;;;;;;;61.85;26.15;;;2.40;99.90;;;;;;4997366;28;20443;-89
2023/01/21 10:57:13;;;;;;;54.17;24.95;;;2.50;99.90;;;;;;4998351;28;20044;-89
2023/01/21 10:59:40;;;;;;;59.90;24.50;;;2.50;99.90;;;;;;4958053;28;20041;-87
2023/01/21 11:02:19;;;;;;;57.17;23.88;;;2.60;99.90;;;;;;4995260;28;20064;-88
2023/01/21 11:04:45;;;;;;;54.95;24.23;;;2.60;99.90;;;;;;4978954;28;20400;-87
2023/01/21 11:07:15;;;;;;;55.70;23.83;;;2.60;99.90;;;;;;4982877;28;20038;-87
2023/01/21 11:09:45;;;;;;;61.20;24.77;;;2.60;99.90;;;;;;4995366;28;20045;-87
2023/01/21 11:12:16;;;;;;;52.03;23.65;;;2.70;99.90;;;;;;4996355;28;20033;-86
2023/01/21 11:14:46;;;;;;;52.67;23.20;;;2.70;99.90;;;;;;4998015;28;20395;-84
2023/01/21 11:17:12;;;;;;;52.22;22.90;;;2.70;99.90;;;;;;4996600;28;20034;-85
2023/01/21 11:19:38;;;;;;;54.35;23.17;;;2.70;99.90;;;;;;4982482;28;20066;-85
2023/01/21 11:22:15;;;;;;;51.70;22.70;;;2.80;99.90;;;;;;4984302;28;20038;-85
2023/01/21 11:24:43;;;;;;;52.08;22.75;;;2.80;99.90;;;;;;5010229;28;20069;-86
2023/01/21 11:27:36;;;;;;;55.35;24.00;;;2.80;99.90;;;;;;4996811;28;20037;-85
2023/01/21 11:30:04;;;;;;;50.65;22.48;;;2.80;99.90;;;;;;4976518;28;20472;-85
2023/01/21 11:32:31;;;;;;;51.58;24.23;;;2.90;99.90;;;;;;4978025;28;20163;-86
2023/01/21 11:35:07;;;;;;;51.10;23.08;;;2.90;99.90;;;;;;4994975;28;20041;-85
2023/01/21 11:37:34;;;;;;;51.03;22.77;;;3.00;99.90;;;;;;4976788;28;20117;-86
2023/01/21 11:40:06;;;;;;;51.00;21.83;;;3.10;99.90;;;;;;4984373;28;20034;-88
2023/01/21 11:42:31;;;;;;;46.95;22.23;;;3.20;99.90;;;;;;4996949;28;20034;-90
2023/01/21 11:45:00;;;;;;;52.22;21.75;;;3.30;99.90;;;;;;4980895;28;20041;-87
2023/01/21 11:47:38;;;;;;;49.60;22.20;;;3.30;99.90;;;;;;5012776;28;20030;-85
2023/01/21 11:50:15;;;;;;;46.78;21.30;;;3.40;99.90;;;;;;4979967;28;20042;-86
2023/01/21 11:52:40;;;;;;;47.17;20.85;;;3.50;99.90;;;;;;4980557;28;20491;-85
2023/01/21 11:55:26;;;;;;;39.58;20.15;;;3.50;99.90;;;;;;4983267;28;20049;-86
2023/01/21 11:57:55;;;;;;;43.20;19.38;;;3.50;99.90;;;;;;4979526;28;20041;-85
2023/01/21 12:00:24;;;;;;;44.92;20.60;;;3.50;99.90;;;;;;5012806;28;20475;-85
2023/01/21 12:03:00;;;;;;;43.75;20.02;;;3.50;99.90;;;;;;4982991;28;20132;-85
2023/01/21 12:05:30;;;;;;;41.05;18.60;;;3.50;99.90;;;;;;4977366;28;20431;-85
2023/01/21 12:07:56;;;;;;;39.45;18.70;;;3.50;99.90;;;;;;4977462;28;20113;-85
2023/01/21 12:10:29;;;;;;;42.78;20.33;;;3.50;99.90;;;;;;4980405;28;20034;-85
2023/01/21 12:13:12;;;;;;;42.20;19.60;;;3.50;99.90;;;;;;4979973;28;20038;-84
2023/01/21 12:16:03;;;;;;;42.90;19.02;;;3.50;99.90;;;;;;4979914;28;20031;-85
2023/01/21 12:18:36;;;;;;;41.55;20.30;;;3.50;99.90;;;;;;4997778;28;20038;-85
2023/01/21 12:21:23;;;;;;;34.70;18.45;;;3.40;99.90;;;;;;4998332;28;20027;-86
2023/01/21 12:24:36;;;;;;;38.55;18.77;;;3.40;99.90;;;;;;4980034;28;20038;-85
2023/01/21 12:27:09;;;;;;;33.10;16.15;;;3.40;99.90;;;;;;4913296;28;20057;-85
2023/01/21 12:30:19;;;;;;;33.90;16.75;;;3.40;99.90;;;;;;4999624;28;20084;-85
2023/01/21 12:32:50;;;;;;;36.33;16.40;;;3.40;99.90;;;;;;4975265;28;20045;-85
2023/01/21 12:35:24;;;;;;;32.10;17.23;;;3.50;99.90;;;;;;4999324;28;20041;-86
2023/01/21 12:37:57;;;;;;;35.63;16.83;;;3.40;99.90;;;;;;4999481;28;20036;-84
2023/01/21 12:40:32;;;;;;;32.88;16.65;;;3.40;99.90;;;;;;4979882;28;20064;-85
2023/01/21 12:43:21;;;;;;;34.50;17.52;;;3.40;99.90;;;;;;4986815;28;20061;-87
2023/01/21 12:46:19;;;;;;;34.38;17.60;;;3.40;99.90;;;;;;4998418;28;20113;-86
2023/01/21 12:48:55;;;;;;;31.88;16.70;;;3.40;99.90;;;;;;4994692;28;20120;-88
2023/01/21 12:51:26;;;;;;;33.42;15.70;;;3.40;99.90;;;;;;4990630;28;20044;-91
2023/01/21 12:54:19;;;;;;;32.65;16.67;;;3.50;99.90;;;;;;4982460;28;20044;-91
2023/01/21 12:56:52;;;;;;;34.13;16.65;;;3.40;99.90;;;;;;5003527;28;20143;-86